Time;durP1;ratioP1;P1;durP2;ratioP2;P2;SDS_P1;SDS_P2;PMS_P1;PMS_P2;Temp;Humidity;BMP_temperature;BMP_pressure;BME280_temperature;BME280_humidity;BME280_pressure;Samples;Min_cycle;Max_cycle;Signal;HPM_P1;HPM_P2
2022/06/23 00:03:22;;;;;;;5.00;1.80;;;24.90;52.50;;;;;;220280;1268;25491;-49
2022/06/23 00:08:25;;;;;;;3.20;1.70;;;24.90;52.10;;;;;;220742;1268;22531;-47
2022/06/23 00:13:37;;;;;;;2.30;1.40;;;24.90;52.50;;;;;;220516;1271;22574;-51
2022/06/23 00:18:39;;;;;;;4.20;1.80;;;24.90;52.60;;;;;;220640;1269;25284;-52
2022/06/23 00:23:45;;;;;;;5.60;2.00;;;24.80;52.50;;;;;;220474;1268;22580;-48
2022/06/23 00:28:51;;;;;;;3.10;1.50;;;24.80;52.30;;;;;;220712;1268;23152;-53
2022/06/23 00:33:56;;;;;;;3.10;1.60;;;24.80;52.50;;;;;;220477;1268;25415;-51
2022/06/23 00:38:59;;;;;;;3.00;1.50;;;24.80;52.70;;;;;;220548;1265;22743;-48
2022/06/23 00:44:15;;;;;;;2.60;1.60;;;24.80;52.80;;;;;;221193;1270;24208;-49
2022/06/23 00:49:29;;;;;;;4.00;1.80;;;24.80;52.40;;;;;;220584;1268;24692;-48
2022/06/23 00:54:37;;;;;;;2.50;1.60;;;24.80;52.40;;;;;;220567;1271;22710;-47
2022/06/23 01:00:13;;;;;;;2.10;1.40;;;24.70;52.40;;;;;;221015;1269;24366;-51
2022/06/23 01:05:23;;;;;;;5.20;1.80;;;24.80;52.40;;;;;;220759;1270;22731;-50
2022/06/23 01:10:40;;;;;;;8.00;2.30;;;24.70;52.40;;;;;;220780;1268;22545;-50
2022/06/23 01:15:56;;;;;;;11.70;2.60;;;24.80;52.40;;;;;;220595;1268;24445;-49
2022/06/23 01:21:06;;;;;;;6.50;2.10;;;24.70;52.30;;;;;;220380;1269;408800;-48
2022/06/23 01:26:08;;;;;;;5.00;1.90;;;24.70;52.40;;;;;;220634;1269;22571;-48
2022/06/23 01:31:25;;;;;;;4.20;1.90;;;24.70;52.40;;;;;;220520;1268;25378;-53
2022/06/23 01:36:38;;;;;;;2.30;1.50;;;24.70;52.80;;;;;;220408;1270;24252;-51
2022/06/23 01:42:06;;;;;;;3.80;1.80;;;24.70;52.50;;;;;;220552;1269;25293;-50
2022/06/23 01:47:22;;;;;;;2.50;1.40;;;24.70;52.40;;;;;;220639;1268;22560;-48
2022/06/23 01:52:24;;;;;;;4.10;1.60;;;24.70;52.50;;;;;;220503;1268;26673;-49
2022/06/23 01:57:34;;;;;;;4.10;1.70;;;24.70;52.80;;;;;;220904;1270;22674;-48
2022/06/23 02:02:52;;;;;;;3.60;1.60;;;24.60;52.70;;;;;;220717;1270;25293;-48
2022/06/23 02:08:13;;;;;;;2.00;1.50;;;24.60;52.70;;;;;;220951;1268;22556;-48
2022/06/23 02:13:29;;;;;;;3.80;1.70;;;24.60;52.50;;;;;;220330;1268;24285;-47
2022/06/23 02:18:38;;;;;;;2.40;1.50;;;24.60;52.50;;;;;;220907;1268;25228;-51
2022/06/23 02:24:07;;;;;;;3.60;1.50;;;24.60;52.40;;;;;;221006;1268;22803;-54
2022/06/23 02:29:21;;;;;;;3.50;1.70;;;24.60;52.40;;;;;;220703;1268;22570;-49
2022/06/23 02:35:05;;;;;;;3.60;1.80;;;24.60;52.40;;;;;;220785;1270;24218;-47
2022/06/23 02:40:36;;;;;;;2.90;1.60;;;24.50;52.70;;;;;;220704;1268;25611;-49
2022/06/23 02:46:02;;;;;;;3.30;1.80;;;24.50;52.40;;;;;;220947;1268;24300;-52
2022/06/23 02:51:13;;;;;;;3.20;1.80;;;24.50;52.60;;;;;;220703;1268;22566;-49
2022/06/23 02:56:35;;;;;;;4.90;2.00;;;24.50;52.50;;;;;;220412;1268;24656;-48
2022/06/23 03:01:55;;;;;;;2.80;1.70;;;24.50;52.60;;;;;;220454;1268;22580;-51
2022/06/23 03:07:03;;;;;;;3.00;1.80;;;24.50;52.50;;;;;;220565;1268;22564;-49
2022/06/23 03:12:22;;;;;;;3.30;1.60;;;24.50;52.50;;;;;;220623;1268;23909;-48
2022/06/23 03:17:34;;;;;;;5.00;1.90;;;24.50;52.90;;;;;;220660;1268;24258;-49
2022/06/23 03:23:14;;;;;;;2.40;1.50;;;24.50;52.50;;;;;;220268;1268;22571;-46
2022/06/23 03:28:29;;;;;;;2.50;1.60;;;24.50;52.50;;;;;;220694;1268;25241;-48
2022/06/23 03:33:39;;;;;;;2.50;1.60;;;24.50;52.50;;;;;;220758;1268;24819;-53
2022/06/23 03:44:27;;;;;;;4.30;1.60;;;24.50;52.80;;;;;;220432;1268;25330;-48
2022/06/23 03:49:44;;;;;;;4.60;1.90;;;24.40;52.40;;;;;;220598;1268;22525;-47
2022/06/23 03:54:53;;;;;;;2.40;1.60;;;24.50;53.10;;;;;;220679;1268;22574;-49
2022/06/23 04:00:22;;;;;;;5.00;1.80;;;24.40;52.50;;;;;;220671;1268;25326;-46
2022/06/23 04:05:29;;;;;;;9.20;2.40;;;24.40;52.70;;;;;;220581;1268;23733;-49
2022/06/23 04:10:41;;;;;;;5.40;2.10;;;24.40;52.70;;;;;;220548;1268;22709;-49
2022/06/23 04:15:44;;;;;;;3.40;1.80;;;24.40;52.40;;;;;;220718;1268;22571;-49
2022/06/23 04:20:58;;;;;;;8.10;2.50;;;24.40;52.50;;;;;;220632;1268;23470;-48
2022/06/23 04:26:14;;;;;;;10.30;2.60;;;24.40;52.40;;;;;;220422;1268;24212;-48
2022/06/23 04:31:27;;;;;;;5.60;2.10;;;24.40;52.40;;;;;;220841;1269;22587;-49
2022/06/23 04:36:32;;;;;;;5.90;2.00;;;24.40;52.40;;;;;;220460;1267;22816;-47
2022/06/23 04:41:42;;;;;;;5.00;1.80;;;24.40;52.40;;;;;;220888;1268;22561;-49
2022/06/23 04:46:50;;;;;;;2.60;1.50;;;24.40;52.30;;;;;;220963;1268;24269;-50
2022/06/23 04:52:32;;;;;;;6.70;2.20;;;24.40;52.30;;;;;;220998;1268;22572;-47
2022/06/23 04:57:45;;;;;;;2.90;1.70;;;24.40;52.30;;;;;;220867;1268;22535;-47
2022/06/23 05:02:52;;;;;;;6.00;2.20;;;24.40;52.30;;;;;;220303;1268;25383;-47
2022/06/23 05:08:02;;;;;;;4.10;1.80;;;24.40;52.40;;;;;;220600;1268;22691;-47
2022/06/23 05:13:13;;;;;;;3.10;1.90;;;24.40;52.30;;;;;;220699;1268;26728;-51
2022/06/23 05:18:28;;;;;;;4.30;2.10;;;24.40;51.80;;;;;;220696;1268;22710;-48
2022/06/23 05:23:39;;;;;;;3.20;2.00;;;24.40;52.20;;;;;;220720;1268;24376;-49
2022/06/23 05:28:43;;;;;;;2.90;1.80;;;24.40;52.20;;;;;;220378;1267;22687;-51
2022/06/23 05:33:54;;;;;;;3.90;1.90;;;24.40;52.20;;;;;;220869;1268;22583;-47
2022/06/23 05:39:13;;;;;;;2.70;1.80;;;24.50;52.20;;;;;;220394;1268;22706;-51
2022/06/23 05:44:18;;;;;;;3.00;1.80;;;24.50;52.20;;;;;;220380;1268;22573;-46
2022/06/23 05:49:26;;;;;;;3.80;1.80;;;24.40;52.20;;;;;;220563;1268;24272;-52
2022/06/23 05:54:31;;;;;;;5.30;2.00;;;24.50;52.10;;;;;;220660;1268;24290;-50
2022/06/23 05:59:48;;;;;;;4.20;1.90;;;24.50;52.10;;;;;;220979;1268;22548;-49
2022/06/23 06:04:53;;;;;;;4.20;2.20;;;24.50;52.40;;;;;;220672;1268;22717;-50
2022/06/23 06:09:55;;;;;;;3.70;1.70;;;24.50;52.10;;;;;;220976;1268;22558;-49
2022/06/23 06:15:04;;;;;;;3.40;1.80;;;24.50;52.10;;;;;;220591;1268;24233;-54
2022/06/23 06:20:09;;;;;;;3.10;1.80;;;24.50;52.10;;;;;;220837;1268;22671;-48
2022/06/23 06:25:33;;;;;;;2.80;1.80;;;24.50;52.10;;;;;;220917;1268;24277;-56
2022/06/23 06:30:41;;;;;;;4.10;1.90;;;24.50;52.10;;;;;;220677;1268;25480;-49
2022/06/23 06:35:52;;;;;;;4.40;2.10;;;24.50;52.40;;;;;;220643;1268;22560;-51
2022/06/23 06:40:57;;;;;;;3.00;1.70;;;24.50;52.10;;;;;;221050;1268;22713;-50
2022/06/23 06:45:59;;;;;;;2.50;1.50;;;24.60;52.10;;;;;;220794;1268;22557;-51
2022/06/23 06:51:10;;;;;;;2.60;1.70;;;24.60;52.10;;;;;;220876;1268;22753;-49
2022/06/23 06:56:37;;;;;;;3.90;1.90;;;24.60;52.00;;;;;;220802;1267;24216;-53
2022/06/23 07:01:46;;;;;;;2.90;1.70;;;24.60;52.00;;;;;;220408;1268;24160;-51
2022/06/23 07:07:00;;;;;;;3.20;1.70;;;24.70;52.10;;;;;;220784;1268;22538;-48
2022/06/23 07:12:18;;;;;;;4.40;1.90;;;24.70;52.00;;;;;;220738;1268;24769;-48
2022/06/23 07:17:43;;;;;;;5.30;1.80;;;24.60;52.00;;;;;;220704;1268;24209;-49
2022/06/23 07:22:58;;;;;;;2.70;1.70;;;24.70;52.00;;;;;;220892;1267;25366;-48
2022/06/23 07:28:09;;;;;;;2.50;1.80;;;24.70;52.30;;;;;;220580;1268;24278;-50
2022/06/23 07:33:14;;;;;;;3.10;1.70;;;24.70;52.00;;;;;;220889;1268;22535;-52
2022/06/23 07:38:24;;;;;;;6.20;2.30;;;24.70;52.00;;;;;;220586;1268;23000;-50
2022/06/23 07:43:38;;;;;;;2.60;1.80;;;24.70;51.90;;;;;;220604;1268;24176;-50
2022/06/23 07:48:42;;;;;;;2.70;1.50;;;24.70;52.20;;;;;;220559;1268;22719;-49
2022/06/23 07:53:48;;;;;;;3.60;1.70;;;24.70;51.80;;;;;;220137;1267;22566;-52
2022/06/23 07:58:54;;;;;;;4.20;1.70;;;24.70;51.80;;;;;;220555;1268;25407;-49
2022/06/23 08:04:21;;;;;;;7.50;2.20;;;24.80;52.20;;;;;;220731;1266;22826;-50
2022/06/23 08:09:46;;;;;;;3.20;1.70;;;24.80;51.80;;;;;;220717;1267;22835;-49
2022/06/23 08:20:21;;;;;;;5.50;2.30;;;24.80;51.80;;;;;;220440;1267;22531;-52
2022/06/23 08:25:24;;;;;;;4.90;1.90;;;24.80;51.70;;;;;;220695;1267;25470;-49
2022/06/23 08:30:27;;;;;;;4.10;2.00;;;24.90;52.10;;;;;;220801;1268;23042;-49
2022/06/23 08:35:41;;;;;;;2.70;1.60;;;24.90;51.80;;;;;;220807;1268;25480;-51
2022/06/23 08:41:01;;;;;;;3.00;1.90;;;24.90;51.80;;;;;;220859;1268;22560;-47
2022/06/23 08:46:34;;;;;;;2.50;1.50;;;24.90;51.70;;;;;;220508;1268;22550;-53
2022/06/23 08:51:56;;;;;;;3.00;1.80;;;24.90;51.70;;;;;;220512;1268;24302;-52
2022/06/23 08:57:16;;;;;;;2.10;1.60;;;24.90;51.70;;;;;;220688;1268;22704;-49
2022/06/23 09:02:50;;;;;;;3.30;1.70;;;25.00;51.70;;;;;;221026;1268;24265;-53
2022/06/23 09:08:18;;;;;;;3.90;1.80;;;25.00;51.60;;;;;;220833;1268;22537;-48
2022/06/23 09:13:49;;;;;;;4.60;1.70;;;25.00;51.60;;;;;;220594;1267;24749;-52
2022/06/23 09:19:19;;;;;;;2.40;1.50;;;25.00;51.60;;;;;;220733;1268;22693;-53
2022/06/23 09:24:57;;;;;;;4.10;1.80;;;25.00;51.50;;;;;;221125;1268;25241;-49
2022/06/23 09:30:17;;;;;;;2.80;1.70;;;25.00;51.60;;;;;;221018;1268;24357;-51
2022/06/23 09:35:50;;;;;;;3.30;1.80;;;25.10;51.60;;;;;;221089;1268;24393;-49
2022/06/23 09:41:31;;;;;;;4.40;1.70;;;25.10;51.60;;;;;;220976;1268;22999;-56
2022/06/23 09:47:06;;;;;;;3.10;1.60;;;25.10;51.60;;;;;;220398;1268;22543;-53
2022/06/23 09:52:25;;;;;;;3.20;1.60;;;25.20;51.60;;;;;;220863;1268;22556;-50
2022/06/23 09:57:49;;;;;;;3.00;1.70;;;25.20;51.60;;;;;;220829;1267;22589;-50
2022/06/23 10:03:22;;;;;;;3.60;1.80;;;25.20;51.60;;;;;;220563;1268;25282;-50
2022/06/23 10:08:33;;;;;;;5.40;1.90;;;25.20;51.50;;;;;;221135;1268;24192;-50
2022/06/23 10:14:03;;;;;;;2.80;1.80;;;25.30;51.50;;;;;;220996;1268;22535;-48
2022/06/23 10:19:23;;;;;;;3.00;1.80;;;25.30;51.50;;;;;;220676;1268;25245;-50
2022/06/23 10:24:41;;;;;;;3.30;1.60;;;25.30;51.40;;;;;;220813;1266;23965;-49
2022/06/23 10:30:15;;;;;;;3.30;1.60;;;25.30;51.40;;;;;;220893;1268;24414;-50
2022/06/23 10:35:47;;;;;;;2.40;1.30;;;25.40;51.40;;;;;;220768;1268;24401;-53
2022/06/23 10:41:11;;;;;;;5.40;2.00;;;25.40;51.40;;;;;;220770;1268;24424;-50
2022/06/23 10:46:21;;;;;;;5.20;2.00;;;25.40;51.30;;;;;;220765;1268;24247;-52
2022/06/23 10:52:11;;;;;;;5.20;1.90;;;25.40;51.30;;;;;;221129;1268;24211;-55
2022/06/23 10:57:35;;;;;;;3.90;1.80;;;25.50;51.20;;;;;;220880;1268;22691;-48
2022/06/23 11:03:11;;;;;;;2.60;1.60;;;25.50;51.20;;;;;;221060;1268;23903;-49
2022/06/23 11:08:34;;;;;;;2.80;1.80;;;25.50;51.50;;;;;;220987;1268;22539;-52
2022/06/23 11:13:59;;;;;;;3.30;1.70;;;25.50;51.20;;;;;;220673;1268;25274;-49
2022/06/23 11:19:31;;;;;;;2.90;1.60;;;25.60;51.20;;;;;;220909;1268;24243;-52
2022/06/23 11:24:43;;;;;;;2.10;1.50;;;25.60;51.10;;;;;;220658;1268;25437;-53
2022/06/23 11:29:54;;;;;;;5.20;2.00;;;25.70;51.30;;;;;;221020;1268;22543;-52
2022/06/23 11:35:02;;;;;;;2.40;1.40;;;25.70;51.20;;;;;;221105;1268;24295;-48
2022/06/23 11:40:23;;;;;;;2.40;1.50;;;25.70;51.10;;;;;;220765;1268;22688;-49
2022/06/23 11:46:08;;;;;;;2.90;1.50;;;25.70;51.10;;;;;;220713;1268;24366;-50
2022/06/23 11:51:29;;;;;;;4.40;1.90;;;25.70;51.00;;;;;;220585;1267;22726;-53
2022/06/23 11:56:43;;;;;;;4.80;1.90;;;25.70;51.10;;;;;;220766;1268;22540;-56
2022/06/23 12:01:45;;;;;;;3.10;1.60;;;25.70;51.00;;;;;;221004;1268;22587;-50
2022/06/23 12:07:02;;;;;;;2.20;1.60;;;25.70;50.90;;;;;;220560;1268;22532;-49
2022/06/23 12:12:07;;;;;;;4.70;2.00;;;25.80;51.10;;;;;;220777;1268;23951;-50
2022/06/23 12:17:34;;;;;;;3.00;1.70;;;25.80;51.30;;;;;;220940;1268;22564;-49
2022/06/23 12:22:48;;;;;;;2.00;1.40;;;25.80;51.10;;;;;;220810;1267;25248;-52
2022/06/23 12:28:06;;;;;;;2.90;1.70;;;25.80;50.90;;;;;;220785;1268;24215;-49
2022/06/23 12:33:28;;;;;;;3.10;1.80;;;25.80;50.90;;;;;;220702;1268;25151;-56
2022/06/23 12:38:48;;;;;;;2.50;1.60;;;25.90;51.10;;;;;;220500;1268;22687;-50
2022/06/23 12:44:29;;;;;;;6.00;1.70;;;25.90;51.00;;;;;;220818;1268;24252;-50
2022/06/23 12:50:03;;;;;;;2.30;1.60;;;25.90;50.90;;;;;;220520;1268;22677;-50
2022/06/23 12:55:10;;;;;;;2.60;1.70;;;25.90;50.90;;;;;;220719;1268;22560;-48
2022/06/23 13:00:18;;;;;;;2.40;1.50;;;25.90;51.10;;;;;;221059;1268;26600;-49
2022/06/23 13:05:35;;;;;;;3.90;1.80;;;25.90;50.90;;;;;;220963;1268;22703;-48
2022/06/23 13:11:06;;;;;;;2.30;1.50;;;26.00;51.10;;;;;;220728;1268;22589;-51
2022/06/23 13:16:30;;;;;;;4.80;2.00;;;26.00;51.10;;;;;;220826;1268;24409;-49
2022/06/23 13:21:36;;;;;;;3.10;1.70;;;26.00;51.00;;;;;;220583;1268;413538;-56
2022/06/23 13:26:46;;;;;;;5.40;2.20;;;26.00;51.10;;;;;;220484;1268;24214;-54
2022/06/23 13:32:06;;;;;;;2.70;1.90;;;26.00;51.00;;;;;;220908;1268;25545;-49
2022/06/23 13:37:25;;;;;;;6.60;2.30;;;26.00;51.30;;;;;;220816;1268;24297;-55
2022/06/23 13:42:49;;;;;;;8.30;2.50;;;26.00;51.00;;;;;;220811;1268;23907;-50
2022/06/23 13:48:31;;;;;;;3.90;1.90;;;26.00;51.30;;;;;;220774;1268;26481;-50
2022/06/23 13:53:36;;;;;;;2.80;1.50;;;26.00;51.00;;;;;;220845;1267;22528;-54
2022/06/23 13:59:04;;;;;;;2.10;1.50;;;26.00;51.00;;;;;;221029;1268;22539;-48
2022/06/23 14:04:23;;;;;;;3.30;1.90;;;26.00;50.90;;;;;;220911;1268;23038;-50
2022/06/23 14:09:41;;;;;;;6.00;2.10;;;26.10;50.90;;;;;;220488;1268;22537;-53
2022/06/23 14:15:00;;;;;;;11.10;2.60;;;26.00;50.90;;;;;;220786;1267;24274;-49
2022/06/23 14:20:12;;;;;;;4.80;2.10;;;26.10;51.10;;;;;;220524;1268;24236;-48
2022/06/23 14:25:34;;;;;;;4.50;1.70;;;26.10;51.10;;;;;;220955;1268;26476;-53
2022/06/23 14:31:09;;;;;;;4.10;1.90;;;26.10;51.60;;;;;;220564;1267;24372;-49
2022/06/23 14:37:15;;;;;;;5.70;1.90;;;26.10;51.20;;;;;;220634;1267;24299;-52
2022/06/23 14:42:52;;;;;;;2.30;1.60;;;26.00;51.80;;;;;;220197;1266;22547;-49
2022/06/23 14:48:54;;;;;;;2.50;1.70;;;26.10;51.30;;;;;;220722;1268;25445;-47
2022/06/23 14:54:36;;;;;;;3.50;1.90;;;26.10;51.50;;;;;;220985;1268;24403;-48
2022/06/23 15:00:16;;;;;;;2.90;1.70;;;26.10;51.10;;;;;;220636;1268;23952;-50
2022/06/23 15:05:48;;;;;;;2.50;1.60;;;26.10;51.50;;;;;;220682;1268;22615;-48
2022/06/23 15:11:09;;;;;;;4.10;1.90;;;26.10;51.60;;;;;;220837;1268;25321;-48
2022/06/23 15:17:00;;;;;;;2.90;1.70;;;26.10;51.60;;;;;;220734;1268;24304;-49
2022/06/23 15:28:37;;;;;;;2.80;1.80;;;26.10;51.20;;;;;;220761;1268;24220;-50
2022/06/23 15:34:45;;;;;;;6.70;2.10;;;26.10;51.20;;;;;;221011;1268;22616;-49
2022/06/23 15:40:14;;;;;;;3.20;1.90;;;26.10;51.00;;;;;;220735;1268;25276;-52
2022/06/23 15:46:06;;;;;;;4.40;1.80;;;26.10;50.40;;;;;;221000;1268;22710;-51
2022/06/23 15:51:51;;;;;;;3.80;1.80;;;26.10;50.50;;;;;;220599;1268;22534;-51
2022/06/23 15:57:36;;;;;;;2.80;1.80;;;26.10;50.40;;;;;;220864;1268;23027;-51
2022/06/23 16:02:56;;;;;;;3.70;1.70;;;26.10;50.20;;;;;;220809;1268;24283;-49
2022/06/23 16:08:14;;;;;;;3.50;1.80;;;26.10;50.40;;;;;;220832;1268;25504;-54
2022/06/23 16:13:27;;;;;;;3.20;1.80;;;26.10;50.60;;;;;;220610;1267;22565;-47
2022/06/23 16:18:49;;;;;;;2.00;1.40;;;26.10;50.70;;;;;;220595;1268;22570;-49
2022/06/23 16:24:33;;;;;;;3.00;2.00;;;26.10;50.80;;;;;;220533;1267;24524;-48
2022/06/23 16:29:54;;;;;;;;;;;26.10;51.00;;;;;;220853;1268;22556;-52
2022/06/23 16:35:18;;;;;;;2.70;1.60;;;26.10;50.80;;;;;;220834;1268;22534;-50
2022/06/23 16:41:01;;;;;;;4.90;1.90;;;26.20;51.00;;;;;;220949;1268;24073;-52
2022/06/23 16:46:34;;;;;;;4.00;2.00;;;26.10;51.40;;;;;;220747;1268;25295;-48
2022/06/23 16:52:00;;;;;;;3.10;1.70;;;26.10;50.60;;;;;;221134;1268;22540;-49
2022/06/23 16:57:24;;;;;;;2.00;1.40;;;26.10;50.90;;;;;;220638;1268;25391;-49
2022/06/23 17:02:40;;;;;;;2.70;1.70;;;26.10;51.30;;;;;;220637;1268;24214;-51
2022/06/23 17:08:16;;;;;;;2.30;1.60;;;26.10;50.70;;;;;;221070;1268;25366;-49
2022/06/23 17:13:40;;;;;;;7.20;2.30;;;26.10;50.90;;;;;;220983;1268;24084;-49
2022/06/23 17:19:21;;;;;;;2.50;1.70;;;26.10;51.30;;;;;;220869;1268;22561;-48
2022/06/23 17:24:55;;;;;;;;;;;;;;;;;;;;;
2022/06/23 17:31:01;;;;;;;4.90;2.00;;;26.10;50.90;;;;;;220720;1268;23872;-48
2022/06/23 17:36:25;;;;;;;3.90;1.90;;;26.10;51.00;;;;;;220673;1266;22548;-52
2022/06/23 17:47:32;;;;;;;7.30;2.20;;;26.10;51.00;;;;;;220474;1268;25253;-51
2022/06/23 17:52:53;;;;;;;2.80;1.60;;;26.10;51.10;;;;;;220954;1268;24216;-47
2022/06/23 17:58:19;;;;;;;5.40;2.30;;;26.10;51.10;;;;;;220887;1268;22643;-49
2022/06/23 18:03:34;;;;;;;5.00;1.90;;;26.10;51.20;;;;;;220801;1268;24317;-52
2022/06/23 18:09:26;;;;;;;4.20;2.00;;;26.10;51.10;;;;;;221050;1268;25244;-48
2022/06/23 18:14:43;;;;;;;3.20;1.70;;;26.10;51.10;;;;;;219680;1273;24335;-48
2022/06/23 18:20:42;;;;;;;5.00;2.10;;;26.10;51.00;;;;;;219961;1270;25413;-50
2022/06/23 18:26:16;;;;;;;6.70;2.10;;;26.00;51.40;;;;;;220921;1268;22666;-54
2022/06/23 18:31:38;;;;;;;2.70;1.90;;;26.10;51.50;;;;;;220990;1268;24260;-47
2022/06/23 18:37:50;;;;;;;2.60;1.80;;;26.10;51.20;;;;;;220809;1268;26497;-49
2022/06/23 18:44:06;;;;;;;2.80;1.90;;;26.00;50.90;;;;;;220776;1269;24335;-49
2022/06/23 18:49:50;;;;;;;3.20;1.70;;;26.00;51.20;;;;;;219767;1273;22582;-52
2022/06/23 18:55:04;;;;;;;3.70;1.90;;;26.10;51.00;;;;;;220286;1268;23048;-52
2022/06/23 19:00:14;;;;;;;2.20;1.50;;;26.00;51.00;;;;;;221026;1270;24457;-50
2022/06/23 19:06:21;;;;;;;4.50;2.10;;;26.00;51.30;;;;;;220967;1268;24264;-49
2022/06/23 19:12:16;;;;;;;2.30;1.80;;;26.00;51.10;;;;;;220764;1268;24257;-51
2022/06/23 19:18:22;;;;;;;3.20;2.00;;;26.00;51.20;;;;;;219881;1274;24421;-50
2022/06/23 19:23:43;;;;;;;4.40;1.90;;;26.00;51.30;;;;;;219882;1274;24255;-50
2022/06/23 19:29:21;;;;;;;3.60;2.00;;;26.00;51.30;;;;;;220475;1268;22587;-49
2022/06/23 19:34:44;;;;;;;5.70;2.00;;;26.00;51.30;;;;;;220703;1268;22518;-46
2022/06/23 19:40:20;;;;;;;3.60;1.80;;;26.00;51.30;;;;;;220855;1268;24287;-52
2022/06/23 19:46:06;;;;;;;2.40;1.90;;;26.00;51.30;;;;;;220709;1268;25400;-49
2022/06/23 19:51:24;;;;;;;4.30;2.20;;;26.00;51.60;;;;;;220890;1270;24382;-49
2022/06/23 19:56:58;;;;;;;3.60;2.20;;;26.00;51.40;;;;;;220940;1268;24545;-49
2022/06/23 20:02:36;;;;;;;3.10;2.00;;;25.90;51.40;;;;;;220748;1268;23454;-47
2022/06/23 20:08:10;;;;;;;3.50;2.00;;;25.90;51.40;;;;;;220752;1268;23943;-51
2022/06/23 20:13:29;;;;;;;3.00;1.90;;;25.90;51.80;;;;;;220725;1268;25251;-47
2022/06/23 20:19:04;;;;;;;2.40;1.70;;;25.90;51.50;;;;;;220465;1268;22871;-49
2022/06/23 20:24:37;;;;;;;3.30;1.90;;;25.90;51.50;;;;;;220504;1268;22563;-48
2022/06/23 20:30:02;;;;;;;;;;;25.90;51.50;;;;;;220805;1269;25342;-48
2022/06/23 20:35:55;;;;;;;3.50;2.20;;;25.90;51.50;;;;;;220556;1268;24207;-49
2022/06/23 20:41:17;;;;;;;2.50;1.80;;;25.90;51.60;;;;;;219845;1274;25796;-49
2022/06/23 20:46:31;;;;;;;3.00;2.20;;;25.80;51.50;;;;;;220434;1269;23728;-48
2022/06/23 20:51:59;;;;;;;3.90;2.00;;;25.80;51.50;;;;;;220482;1269;26586;-51
2022/06/23 20:57:15;;;;;;;2.70;1.80;;;25.80;51.10;;;;;;220514;1268;22539;-50
2022/06/23 21:02:22;;;;;;;2.70;1.80;;;25.80;51.60;;;;;;220398;1268;22538;-48
2022/06/23 21:07:46;;;;;;;3.00;2.00;;;25.80;51.60;;;;;;220600;1270;22710;-51
2022/06/23 21:12:57;;;;;;;2.90;2.00;;;25.80;51.70;;;;;;220415;1270;22543;-52
2022/06/23 21:18:31;;;;;;;3.40;2.20;;;25.80;51.60;;;;;;220485;1270;22822;-48
2022/06/23 21:24:18;;;;;;;4.10;2.40;;;25.80;51.70;;;;;;220564;1268;24278;-51
2022/06/23 21:29:35;;;;;;;3.90;2.20;;;25.80;51.70;;;;;;220829;1269;25254;-50
2022/06/23 21:34:59;;;;;;;6.50;2.30;;;25.80;51.70;;;;;;220626;1269;22548;-52
2022/06/23 21:40:27;;;;;;;3.90;2.20;;;25.70;51.70;;;;;;220694;1268;22551;-51
2022/06/23 21:45:42;;;;;;;2.70;2.00;;;25.80;51.70;;;;;;220761;1268;24186;-52
2022/06/23 21:51:03;;;;;;;4.00;2.20;;;25.70;51.70;;;;;;220800;1268;25304;-48
2022/06/23 21:56:47;;;;;;;3.10;2.30;;;25.70;52.10;;;;;;220830;1268;24222;-48
2022/06/23 22:01:55;;;;;;;3.40;2.20;;;25.70;51.70;;;;;;220519;1268;22538;-55
2022/06/23 22:07:01;;;;;;;4.50;2.50;;;25.70;51.80;;;;;;220495;1268;22560;-50
2022/06/23 22:12:38;;;;;;;3.40;2.30;;;25.70;51.90;;;;;;220551;1269;22780;-48
2022/06/23 22:17:51;;;;;;;2.60;2.10;;;25.70;51.80;;;;;;220037;1268;24220;-50
2022/06/23 22:23:15;;;;;;;4.30;2.50;;;25.70;51.80;;;;;;220589;1268;22566;-50
2022/06/23 22:28:19;;;;;;;3.60;2.50;;;25.70;51.80;;;;;;220533;1268;22553;-48
2022/06/23 22:33:46;;;;;;;3.00;2.30;;;25.70;51.90;;;;;;220516;1268;22642;-48
2022/06/23 22:39:03;;;;;;;2.80;2.10;;;25.70;51.90;;;;;;220599;1268;25596;-48
2022/06/23 22:44:44;;;;;;;3.10;2.30;;;25.70;52.40;;;;;;220543;1268;25334;-49
2022/06/23 22:49:48;;;;;;;3.80;2.50;;;25.70;51.90;;;;;;220440;1268;24241;-48
2022/06/23 22:54:50;;;;;;;3.00;2.40;;;25.70;51.90;;;;;;220715;1267;23020;-47
2022/06/23 22:59:55;;;;;;;3.60;2.10;;;25.60;51.90;;;;;;220638;1268;24301;-51
2022/06/23 23:05:04;;;;;;;5.70;2.70;;;25.60;52.00;;;;;;220533;1268;22553;-50
2022/06/23 23:10:12;;;;;;;3.50;2.30;;;25.60;52.00;;;;;;220599;1268;22540;-48
2022/06/23 23:15:27;;;;;;;3.60;2.40;;;25.60;52.00;;;;;;220620;1268;24267;-50
2022/06/23 23:20:32;;;;;;;3.10;2.30;;;25.60;52.00;;;;;;220595;1268;22552;-48
2022/06/23 23:25:45;;;;;;;4.20;2.40;;;25.60;52.10;;;;;;220617;1268;26756;-50
2022/06/23 23:30:59;;;;;;;4.50;2.90;;;25.60;52.10;;;;;;220430;1268;24332;-50
2022/06/23 23:36:08;;;;;;;3.70;2.50;;;25.60;52.10;;;;;;220607;1268;25689;-48
2022/06/23 23:41:24;;;;;;;4.40;2.60;;;25.60;52.10;;;;;;220574;1268;22687;-48
2022/06/23 23:46:35;;;;;;;3.30;2.30;;;25.60;52.10;;;;;;220603;1268;22845;-48
2022/06/23 23:51:40;;;;;;;4.60;2.50;;;25.60;52.10;;;;;;220333;1267;22808;-46
2022/06/23 23:56:43;;;;;;;2.90;2.40;;;25.50;52.00;;;;;;220652;1267;22542;-47
